Time;durP1;ratioP1;P1;durP2;ratioP2;P2;SDS_P1;SDS_P2;PMS_P1;PMS_P2;Temp;Humidity;BMP_temperature;BMP_pressure;BME280_temperature;BME280_humidity;BME280_pressure;Samples;Min_cycle;Max_cycle;Signal;HPM_P1;HPM_P2
2024/03/20 00:01:43;;;;;;;15.90;6.27;;;;;;;3.15;72.74;100917.71;1477841;88;21782;-75
2024/03/20 00:04:09;;;;;;;13.00;7.77;;;;;;;3.15;72.74;100917.71;1479513;88;22799;-76
2024/03/20 00:06:35;;;;;;;11.80;7.73;;;;;;;3.18;72.67;100921.09;1481823;87;21818;-75
2024/03/20 00:09:02;;;;;;;11.13;7.40;;;;;;;3.08;72.17;100913.78;1477923;88;22014;-75
2024/03/20 00:11:29;;;;;;;11.70;8.00;;;;;;;3.08;72.17;100913.78;1484641;88;21809;-75
2024/03/20 00:13:55;;;;;;;11.30;6.87;;;;;;;3.10;72.05;100919.73;1485599;88;21965;-74
2024/03/20 00:16:21;;;;;;;12.47;7.37;;;;;;;3.08;71.84;100916.83;1431712;91;21789;-74
2024/03/20 00:18:48;;;;;;;15.97;9.03;;;;;;;3.02;71.81;100916.74;1478357;88;21880;-74
2024/03/20 00:21:16;;;;;;;11.03;7.20;;;;;;;2.98;71.35;100917.83;1478779;88;21782;-75
2024/03/20 00:23:43;;;;;;;14.00;8.50;;;;;;;2.93;72.32;100915.49;1483345;88;21761;-74
2024/03/20 00:26:09;;;;;;;11.13;7.07;;;;;;;2.93;72.32;100915.49;1478446;88;21970;-74
2024/03/20 00:28:36;;;;;;;12.17;7.47;;;;;;;2.92;72.59;100912.95;1475334;88;21839;-74
2024/03/20 00:31:02;;;;;;;11.67;6.97;;;;;;;2.91;73.33;100911.28;1427084;91;21760;-75
2024/03/20 00:33:28;;;;;;;16.30;10.57;;;;;;;2.89;73.01;100915.74;1477054;88;21737;-74
2024/03/20 00:35:55;;;;;;;12.30;8.03;;;;;;;2.87;73.26;100920.20;1477869;88;22710;-75
2024/03/20 00:38:21;;;;;;;17.20;8.30;;;;;;;2.83;73.89;100922.63;1486901;88;22805;-75
2024/03/20 00:40:50;;;;;;;11.70;8.13;;;;;;;2.80;73.93;100918.87;1487509;88;21770;-75
2024/03/20 00:43:17;;;;;;;13.20;7.53;;;;;;;2.77;73.96;100919.05;1428377;91;21912;-75
2024/03/20 00:45:43;;;;;;;11.73;7.33;;;;;;;2.73;74.85;100913.12;1487776;88;21816;-74
2024/03/20 00:48:09;;;;;;;11.40;7.57;;;;;;;2.69;77.18;100915.08;1473857;88;21700;-75
2024/03/20 00:50:36;;;;;;;11.40;7.87;;;;;;;2.67;77.47;100906.47;1429905;91;21797;-76
2024/03/20 00:53:02;;;;;;;11.73;7.47;;;;;;;2.67;77.50;100909.55;1472789;88;21597;-75
2024/03/20 00:55:28;;;;;;;16.63;8.83;;;;;;;2.66;79.07;100914.41;1431822;91;21784;-75
2024/03/20 00:57:55;;;;;;;14.80;7.83;;;;;;;2.70;78.90;100900.23;1474120;88;22719;-74
2024/03/20 01:00:21;;;;;;;15.07;8.77;;;;;;;2.74;78.04;100906.99;1479941;88;21861;-75
2024/03/20 01:02:47;;;;;;;14.73;7.90;;;;;;;2.75;78.23;100899.98;1476561;88;21752;-76
2024/03/20 01:05:14;;;;;;;14.20;8.83;;;;;;;2.76;79.41;100897.73;1477899;88;21784;-74
2024/03/20 01:07:41;;;;;;;15.80;8.33;;;;;;;2.77;79.44;100895.52;1481355;88;21878;-75
2024/03/20 01:10:08;;;;;;;14.63;8.63;;;;;;;2.80;78.36;100894.87;1476469;88;21997;-74
2024/03/20 01:12:37;;;;;;;13.27;8.97;;;;;;;2.80;79.29;100883.59;1479728;88;21830;-74
2024/03/20 01:15:05;;;;;;;15.53;9.77;;;;;;;2.82;79.62;100894.34;1479211;88;21793;-75
2024/03/20 01:17:33;;;;;;;14.40;9.23;;;;;;;2.81;79.69;100897.02;1486262;88;21802;-75
2024/03/20 01:20:02;;;;;;;14.43;9.07;;;;;;;2.80;79.19;100894.87;1476721;88;22344;-75
2024/03/20 01:22:35;;;;;;;20.70;8.33;;;;;;;2.80;79.30;100892.27;1431422;91;22649;-75
2024/03/20 01:25:07;;;;;;;12.27;8.53;;;;;;;2.79;79.43;100891.03;1492321;88;21940;-75
2024/03/20 01:27:34;;;;;;;14.07;8.43;;;;;;;2.78;80.50;100897.20;1441483;91;21734;-74
2024/03/20 01:30:00;;;;;;;15.97;8.20;;;;;;;2.80;80.28;100890.96;1471018;88;22857;-75
2024/03/20 01:32:27;;;;;;;12.00;7.60;;;;;;;2.82;79.54;100896.95;1481106;88;21794;-75
2024/03/20 01:34:53;;;;;;;16.53;8.73;;;;;;;2.82;78.58;100893.03;1480819;88;21775;-74
2024/03/20 01:37:19;;;;;;;13.00;8.10;;;;;;;2.79;79.20;100897.13;1485114;88;22765;-74
2024/03/20 01:39:46;;;;;;;13.80;8.33;;;;;;;2.75;78.52;100898.68;1479335;88;21698;-74
2024/03/20 01:42:12;;;;;;;16.40;9.63;;;;;;;2.71;78.14;100910.61;1471112;88;21816;-74
2024/03/20 01:44:38;;;;;;;14.80;8.87;;;;;;;2.65;77.84;100907.04;1476905;88;21721;-74
2024/03/20 01:47:05;;;;;;;21.20;10.40;;;;;;;2.61;77.60;100902.89;1478147;88;22585;-74
2024/03/20 01:49:32;;;;;;;11.77;7.70;;;;;;;2.59;77.36;100911.30;1476954;88;21736;-74
2024/03/20 01:52:00;;;;;;;19.13;8.37;;;;;;;2.54;77.59;100902.87;1433274;91;21780;-74
2024/03/20 01:54:28;;;;;;;15.77;9.17;;;;;;;2.51;77.61;100905.66;1474790;88;21710;-75
2024/03/20 01:56:54;;;;;;;14.80;8.67;;;;;;;2.43;78.47;100909.14;1484654;88;21866;-74
2024/03/20 01:59:20;;;;;;;15.33;8.77;;;;;;;2.37;77.52;100907.70;1427314;91;22688;-74
2024/03/20 02:01:47;;;;;;;14.90;8.73;;;;;;;2.31;77.65;100903.28;1481841;88;21736;-74
2024/03/20 02:04:13;;;;;;;14.50;9.00;;;;;;;2.26;77.58;100904.36;1472338;88;21819;-74
2024/03/20 02:06:41;;;;;;;12.27;8.23;;;;;;;2.24;77.58;100909.28;1460560;88;21897;-74
2024/03/20 02:09:09;;;;;;;14.83;9.83;;;;;;;2.21;78.40;100905.06;1414446;92;22590;-74
2024/03/20 02:11:35;;;;;;;14.47;9.00;;;;;;;2.21;78.42;100910.75;1460569;89;22649;-74
2024/03/20 02:14:02;;;;;;;13.87;8.90;;;;;;;2.20;79.20;100907.77;1461333;89;21774;-73
2024/03/20 02:16:29;;;;;;;12.47;7.53;;;;;;;2.23;79.17;100912.36;1468452;89;21642;-74
2024/03/20 02:18:55;;;;;;;21.97;11.30;;;;;;;2.25;79.04;100913.12;1464126;89;21884;-74
2024/03/20 02:21:23;;;;;;;18.27;10.63;;;;;;;2.28;79.19;100913.44;1457156;89;21663;-73
2024/03/20 02:23:50;;;;;;;13.20;8.00;;;;;;;2.26;78.53;100909.58;1410130;92;23368;-73
2024/03/20 02:26:17;;;;;;;14.90;9.97;;;;;;;2.25;81.81;100914.91;1465820;88;21699;-74
2024/03/20 02:28:45;;;;;;;14.67;7.93;;;;;;;2.25;82.86;100906.60;1407087;91;21776;-74
2024/03/20 02:31:13;;;;;;;15.83;9.07;;;;;;;2.27;83.61;100901.28;1465711;88;21589;-74
2024/03/20 02:33:41;;;;;;;13.00;8.67;;;;;;;2.25;84.02;100902.69;1475152;89;23054;-73
2024/03/20 02:36:07;;;;;;;14.13;8.63;;;;;;;2.29;83.35;100905.97;1469219;88;21771;-73
2024/03/20 02:38:37;;;;;;;17.20;8.70;;;;;;;2.32;81.45;100906.27;1466210;89;21862;-74
2024/03/20 02:41:06;;;;;;;24.85;11.45;;;;;;;2.32;81.70;100903.19;1461221;88;21765;-75
2024/03/20 02:43:34;;;;;;;14.23;9.37;;;;;;;2.33;82.68;100901.41;1468321;89;21598;-74
2024/03/20 02:46:00;;;;;;;17.20;9.90;;;;;;;2.34;83.40;100905.73;1466388;88;22248;-73
2024/03/20 02:48:26;;;;;;;15.80;9.70;;;;;;;2.36;82.29;100906.47;1414694;92;21661;-73
2024/03/20 02:50:53;;;;;;;16.77;9.43;;;;;;;2.36;81.23;100906.03;1470285;89;22497;-73
2024/03/20 02:53:19;;;;;;;16.30;9.77;;;;;;;2.37;80.31;100909.48;1465193;88;21908;-73
2024/03/20 02:55:46;;;;;;;13.77;8.13;;;;;;;2.35;79.63;100905.63;1472599;89;21635;-75
2024/03/20 02:58:12;;;;;;;15.57;9.83;;;;;;;2.33;79.18;100909.25;1461887;88;22728;-74
2024/03/20 03:00:39;;;;;;;19.17;11.40;;;;;;;2.30;79.29;100914.64;1462190;89;21741;-73
2024/03/20 03:03:05;;;;;;;19.40;9.77;;;;;;;2.26;79.09;100917.42;1459635;88;21902;-74
2024/03/20 03:05:31;;;;;;;14.37;9.53;;;;;;;2.23;80.06;100917.59;1465460;88;23353;-73
2024/03/20 03:07:58;;;;;;;19.93;11.87;;;;;;;2.18;79.70;100922.20;1471155;89;21691;-74
2024/03/20 03:10:25;;;;;;;13.27;9.10;;;;;;;2.12;79.98;100918.62;1463290;89;21877;-73
2024/03/20 03:12:52;;;;;;;17.07;11.27;;;;;;;2.07;80.41;100923.70;1465855;89;22662;-74
2024/03/20 03:15:20;;;;;;;26.60;11.10;;;;;;;1.99;80.55;100913.22;1471903;88;21765;-73
2024/03/20 03:17:54;;;;;;;15.63;9.83;;;;;;;1.95;80.92;100916.05;1412447;92;22101;-74
2024/03/20 03:20:23;;;;;;;17.93;10.30;;;;;;;1.93;80.51;100910.09;1474149;88;22204;-74
2024/03/20 03:22:50;;;;;;;16.87;9.60;;;;;;;1.85;81.58;100905.27;1410918;91;22818;-76
2024/03/20 03:25:17;;;;;;;16.90;9.87;;;;;;;1.83;81.98;100907.56;1469913;88;21743;-73
2024/03/20 03:27:43;;;;;;;14.93;9.57;;;;;;;1.83;82.86;100907.56;1413580;91;22808;-73
2024/03/20 03:30:10;;;;;;;16.33;9.57;;;;;;;1.84;83.87;100902.72;1455660;89;21692;-74
2024/03/20 03:32:38;;;;;;;12.70;9.17;;;;;;;1.84;88.17;100906.16;1470780;89;21640;-73
2024/03/20 03:35:07;;;;;;;14.63;9.47;;;;;;;1.88;89.42;100905.56;1452030;89;21952;-73
2024/03/20 03:37:33;;;;;;;17.37;9.03;;;;;;;1.92;88.33;100923.58;1461048;89;21791;-73
2024/03/20 03:40:01;;;;;;;18.60;9.43;;;;;;;1.92;84.74;100918.83;1468004;89;22697;-74
2024/03/20 03:42:27;;;;;;;15.87;10.00;;;;;;;1.91;84.43;100923.67;1470810;89;21640;-74
2024/03/20 03:44:54;;;;;;;16.50;9.60;;;;;;;1.88;84.63;100922.53;1415623;92;21576;-73
2024/03/20 03:47:21;;;;;;;14.67;9.27;;;;;;;1.84;83.57;100926.20;1469577;88;21825;-74
2024/03/20 03:49:47;;;;;;;15.83;9.47;;;;;;;1.83;83.08;100925.84;1467344;89;21711;-74
2024/03/20 03:52:14;;;;;;;18.10;11.50;;;;;;;1.79;84.40;100926.00;1469908;89;21693;-74
2024/03/20 03:54:41;;;;;;;17.83;10.60;;;;;;;1.80;83.92;100922.45;1465362;88;21832;-73
2024/03/20 03:57:07;;;;;;;14.90;8.67;;;;;;;1.79;89.50;100922.55;1472488;89;22647;-74
2024/03/20 03:59:36;;;;;;;16.77;10.33;;;;;;;1.82;91.17;100922.39;1465263;88;21653;-74
2024/03/20 04:02:02;;;;;;;18.83;10.53;;;;;;;1.90;91.99;100924.58;1466813;88;21757;-74
2024/03/20 04:04:29;;;;;;;16.57;10.10;;;;;;;1.99;89.80;100931.95;1478413;88;21769;-73
2024/03/20 04:06:55;;;;;;;21.37;12.00;;;;;;;2.05;88.68;100934.71;1483101;88;21629;-74
2024/03/20 04:09:21;;;;;;;28.90;16.13;;;;;;;2.12;87.77;100946.03;1458730;88;21994;-74
2024/03/20 04:11:48;;;;;;;25.33;12.50;;;;;;;2.20;87.53;100937.81;1485662;88;21743;-73
2024/03/20 04:14:15;;;;;;;16.83;10.47;;;;;;;2.30;89.92;100941.59;1480862;88;21671;-75
2024/03/20 04:16:43;;;;;;;20.20;12.53;;;;;;;2.43;89.98;100935.27;1482142;88;22503;-73
2024/03/20 04:19:10;;;;;;;17.03;11.50;;;;;;;2.52;87.97;100938.69;1478651;88;21858;-74
2024/03/20 04:21:39;;;;;;;17.67;9.53;;;;;;;2.63;86.43;100940.25;1482626;88;21728;-74
2024/03/20 04:24:06;;;;;;;14.30;9.50;;;;;;;2.74;85.97;100944.05;1484416;88;21968;-74
2024/03/20 04:26:33;;;;;;;15.80;10.43;;;;;;;2.82;85.01;100941.39;1480383;88;21790;-75
2024/03/20 04:29:00;;;;;;;14.70;9.20;;;;;;;2.89;83.19;100941.41;1436681;91;22892;-74
2024/03/20 04:31:26;;;;;;;17.83;10.83;;;;;;;2.97;82.22;100937.08;1487644;88;21745;-74
2024/03/20 04:33:52;;;;;;;15.67;10.53;;;;;;;3.07;81.34;100947.38;1484494;88;21997;-75
2024/03/20 04:36:19;;;;;;;20.60;11.23;;;;;;;3.07;81.34;100947.38;1475110;88;21773;-75
2024/03/20 04:38:46;;;;;;;20.93;14.07;;;;;;;3.11;80.73;100950.22;1479411;87;22794;-74
2024/03/20 04:41:12;;;;;;;21.13;13.33;;;;;;;3.13;80.34;100954.88;1477100;88;21850;-73
2024/03/20 04:43:39;;;;;;;17.00;10.23;;;;;;;3.17;79.98;100949.02;1433898;91;21932;-74
2024/03/20 04:46:05;;;;;;;16.70;9.60;;;;;;;3.22;80.48;100949.58;1478966;88;22105;-74
2024/03/20 04:48:32;;;;;;;14.33;10.23;;;;;;;3.22;80.48;100949.58;1481271;88;21980;-74
2024/03/20 04:50:58;;;;;;;17.37;9.20;;;;;;;3.32;80.16;100955.98;1471971;88;22077;-74
2024/03/20 04:53:25;;;;;;;16.03;11.20;;;;;;;3.32;79.89;100947.30;1481942;88;21823;-75
2024/03/20 04:55:52;;;;;;;13.77;9.17;;;;;;;3.32;79.89;100947.30;1433043;91;22803;-74
2024/03/20 04:58:18;;;;;;;18.80;10.07;;;;;;;3.39;78.43;100955.16;1480461;88;22271;-74
2024/03/20 05:00:44;;;;;;;14.43;9.40;;;;;;;3.44;77.46;100954.44;1390897;91;22710;-77
2024/03/20 05:03:11;;;;;;;17.50;9.33;;;;;;;3.44;77.46;100954.44;1482674;88;21963;-78
2024/03/20 05:05:38;;;;;;;17.77;10.93;;;;;;;3.51;77.79;100962.32;1412829;91;21966;-77
2024/03/20 05:08:05;;;;;;;19.23;11.53;;;;;;;3.59;76.73;100963.16;1480252;88;21823;-78
2024/03/20 05:10:31;;;;;;;16.77;10.33;;;;;;;3.59;76.73;100963.16;1482875;88;23022;-77
2024/03/20 05:12:57;;;;;;;16.37;9.30;;;;;;;3.62;76.96;100957.74;1472445;88;22844;-77
2024/03/20 05:15:23;;;;;;;14.23;8.93;;;;;;;3.66;76.51;100961.05;1461065;88;22305;-77
2024/03/20 05:17:49;;;;;;;13.67;9.03;;;;;;;3.68;76.11;100965.23;1480084;88;22197;-77
2024/03/20 05:20:16;;;;;;;13.27;9.00;;;;;;;3.71;75.57;100963.41;1483479;88;22131;-77
2024/03/20 05:22:42;;;;;;;13.23;8.67;;;;;;;3.77;75.80;100963.41;1413162;91;22373;-77
2024/03/20 05:25:08;;;;;;;17.67;9.77;;;;;;;3.89;75.12;100973.62;1474727;88;22205;-77
2024/03/20 05:27:35;;;;;;;15.63;8.50;;;;;;;3.98;75.04;100970.44;1483793;88;22279;-77
2024/03/20 05:30:02;;;;;;;16.10;9.53;;;;;;;4.04;74.30;100972.69;1478218;88;22140;-78
2024/03/20 05:32:28;;;;;;;22.43;9.80;;;;;;;4.08;74.13;100975.95;1477180;88;22206;-76
2024/03/20 05:34:55;;;;;;;17.43;11.27;;;;;;;4.10;74.12;100976.72;1479294;88;22155;-77
2024/03/20 05:37:21;;;;;;;23.20;12.20;;;;;;;4.14;73.90;100979.98;1479920;88;22141;-77
2024/03/20 05:39:47;;;;;;;31.67;11.83;;;;;;;4.18;74.28;100980.20;1424491;91;22239;-77
2024/03/20 05:42:13;;;;;;;15.20;9.27;;;;;;;4.19;75.10;100974.84;1479961;88;22178;-76
2024/03/20 05:44:39;;;;;;;17.30;9.27;;;;;;;4.22;74.64;100976.44;1479113;88;22205;-76
2024/03/20 05:47:06;;;;;;;17.13;11.13;;;;;;;4.24;74.58;100983.75;1483256;88;22677;-77
2024/03/20 05:49:32;;;;;;;30.37;11.50;;;;;;;4.24;74.67;100983.75;1472876;88;22169;-75
2024/03/20 05:51:58;;;;;;;14.33;9.87;;;;;;;4.23;74.39;100984.66;1481439;88;22207;-76
2024/03/20 05:54:25;;;;;;;16.87;9.97;;;;;;;4.27;74.28;100990.11;1475568;88;21443;-75
2024/03/20 05:56:51;;;;;;;14.00;9.93;;;;;;;4.28;74.37;100989.16;1485407;88;21509;-75
2024/03/20 05:59:17;;;;;;;16.83;10.27;;;;;;;4.30;74.29;100993.85;1483389;88;22197;-77
2024/03/20 06:01:44;;;;;;;14.57;9.53;;;;;;;4.34;74.21;101000.58;1482834;88;23050;-76
2024/03/20 06:04:10;;;;;;;17.53;10.87;;;;;;;4.37;74.31;100997.77;1477831;88;22241;-76
2024/03/20 06:06:37;;;;;;;15.67;9.67;;;;;;;4.42;74.33;100993.56;1409372;91;21487;-76
2024/03/20 06:09:04;;;;;;;14.90;8.37;;;;;;;4.47;74.49;101006.77;1469482;88;22339;-76
2024/03/20 06:11:31;;;;;;;15.57;9.97;;;;;;;4.56;74.31;101016.31;1414146;92;23276;-75
2024/03/20 06:13:59;;;;;;;16.10;10.00;;;;;;;4.61;73.77;101011.64;1462520;88;21487;-76
2024/03/20 06:16:26;;;;;;;15.80;9.20;;;;;;;4.64;73.42;101013.59;1468153;88;21649;-74
2024/03/20 06:18:52;;;;;;;18.43;9.33;;;;;;;4.69;72.87;101015.91;1469326;89;22220;-75
2024/03/20 06:21:18;;;;;;;15.70;9.23;;;;;;;4.71;72.33;101018.81;1465399;89;22307;-76
2024/03/20 06:23:44;;;;;;;16.37;9.03;;;;;;;4.75;70.98;101022.95;1469558;89;22198;-75
2024/03/20 06:26:10;;;;;;;13.90;9.10;;;;;;;4.75;70.98;101022.95;1469504;89;21478;-75
2024/03/20 06:28:36;;;;;;;15.97;9.00;;;;;;;4.81;71.45;101026.97;1465747;89;21486;-76
2024/03/20 06:31:03;;;;;;;18.13;9.27;;;;;;;4.86;71.66;101014.42;1465589;88;21499;-76
2024/03/20 06:33:29;;;;;;;16.07;10.20;;;;;;;4.92;70.70;101027.14;1463408;89;22268;-75
2024/03/20 06:35:56;;;;;;;13.27;8.37;;;;;;;5.00;71.35;101023.18;1468044;89;21457;-73
2024/03/20 06:38:22;;;;;;;15.17;9.00;;;;;;;5.06;71.36;101022.78;1411053;92;21657;-74
2024/03/20 06:40:49;;;;;;;14.53;8.83;;;;;;;5.12;70.95;101026.33;1472537;89;21508;-74
2024/03/20 06:43:15;;;;;;;15.77;9.07;;;;;;;5.18;70.69;101028.59;1464520;89;21604;-74
2024/03/20 06:45:47;;;;;;;18.43;10.93;;;;;;;5.23;70.04;101037.45;1471693;89;21502;-74
2024/03/20 06:48:12;;;;;;;12.97;8.63;;;;;;;5.27;69.71;101026.68;1468250;89;22292;-75
2024/03/20 06:50:38;;;;;;;17.80;8.97;;;;;;;5.34;69.48;101031.89;1422919;92;21605;-74
2024/03/20 06:53:06;;;;;;;13.20;8.80;;;;;;;5.36;66.54;101030.49;1469209;89;21450;-74
2024/03/20 06:55:33;;;;;;;15.23;9.70;;;;;;;5.40;67.29;101040.67;1415129;92;21495;-75
2024/03/20 06:58:01;;;;;;;14.60;8.67;;;;;;;5.47;68.26;101040.27;1469775;88;21383;-76
2024/03/20 07:00:28;;;;;;;15.07;9.17;;;;;;;5.54;67.75;101042.41;1416082;92;21332;-76
2024/03/20 07:02:56;;;;;;;13.47;7.87;;;;;;;5.59;68.05;101042.95;1470472;89;21442;-76
2024/03/20 07:05:23;;;;;;;13.77;9.10;;;;;;;5.67;68.01;101041.16;1467195;88;21501;-75
2024/03/20 07:07:49;;;;;;;15.87;8.70;;;;;;;5.71;67.44;101046.56;1468629;88;21457;-76
2024/03/20 07:10:15;;;;;;;14.50;9.73;;;;;;;5.81;67.54;101052.91;1468466;88;21469;-75
2024/03/20 07:12:42;;;;;;;15.13;9.90;;;;;;;5.85;66.95;101050.43;1468365;89;21501;-75
2024/03/20 07:15:10;;;;;;;17.73;9.27;;;;;;;5.90;66.33;101054.08;1465317;89;21604;-76
2024/03/20 07:17:39;;;;;;;12.87;8.50;;;;;;;5.99;65.92;101048.71;1468003;89;21494;-75
2024/03/20 07:20:07;;;;;;;26.27;9.43;;;;;;;6.07;65.34;101043.75;1452780;89;22401;-74
2024/03/20 07:22:36;;;;;;;18.80;9.33;;;;;;;6.21;66.55;101051.55;1475242;88;21441;-75
2024/03/20 07:25:05;;;;;;;19.17;10.30;;;;;;;6.33;66.76;101050.73;1473844;88;21340;-75
2024/03/20 07:27:31;;;;;;;18.67;10.53;;;;;;;6.50;66.71;101059.23;1422891;92;22419;-74
2024/03/20 07:29:57;;;;;;;14.50;9.17;;;;;;;6.61;66.39;101048.81;1467224;88;21338;-76
2024/03/20 07:32:23;;;;;;;18.10;9.37;;;;;;;6.70;65.96;101050.83;1460174;89;21338;-76
2024/03/20 07:34:50;;;;;;;15.73;10.60;;;;;;;6.78;64.96;101050.27;1467793;88;22389;-76
2024/03/20 07:37:16;;;;;;;16.53;10.37;;;;;;;6.88;65.41;101045.21;1472932;89;21471;-75
2024/03/20 07:39:43;;;;;;;23.87;11.17;;;;;;;6.96;65.48;101043.72;1467237;89;21441;-75
2024/03/20 07:42:09;;;;;;;15.53;10.17;;;;;;;7.04;64.37;101041.00;1413807;92;21295;-75
2024/03/20 07:44:36;;;;;;;21.13;11.80;;;;;;;7.17;64.49;101047.91;1463199;88;21487;-75
2024/03/20 07:47:03;;;;;;;19.03;11.33;;;;;;;7.30;64.24;101047.85;1412408;91;22367;-76
2024/03/20 07:49:29;;;;;;;17.80;11.30;;;;;;;7.39;63.17;101049.84;1461618;89;21539;-75
2024/03/20 07:51:56;;;;;;;14.97;9.37;;;;;;;7.51;63.66;101052.05;1458379;88;21618;-75
2024/03/20 07:54:26;;;;;;;21.97;10.33;;;;;;;7.65;63.00;101053.64;1461466;89;21360;-75
2024/03/20 07:56:56;;;;;;;14.05;9.73;;;;;;;7.77;61.68;101054.53;1460906;89;21398;-74
2024/03/20 07:59:23;;;;;;;13.50;9.50;;;;;;;7.90;61.61;101060.58;1469971;88;21457;-75
2024/03/20 08:01:51;;;;;;;15.00;8.87;;;;;;;7.99;58.83;101058.56;1464802;89;21383;-74
2024/03/20 08:04:17;;;;;;;14.73;9.07;;;;;;;8.01;59.27;101057.98;1468827;89;21435;-75
2024/03/20 08:06:46;;;;;;;12.90;8.17;;;;;;;8.10;60.36;101061.23;1472178;88;21633;-75
2024/03/20 08:09:13;;;;;;;13.93;8.33;;;;;;;8.05;55.55;101059.41;1462092;88;21448;-75
2024/03/20 08:11:40;;;;;;;12.67;8.93;;;;;;;7.96;54.70;101060.11;1481954;88;21427;-74
2024/03/20 08:14:10;;;;;;;13.77;7.90;;;;;;;7.99;57.40;101066.47;1480424;88;21427;-73
2024/03/20 08:16:41;;;;;;;13.70;8.70;;;;;;;8.08;58.17;101067.09;1425458;91;21413;-75
2024/03/20 08:19:07;;;;;;;13.10;8.30;;;;;;;8.06;57.88;101066.39;1471585;88;21411;-75
2024/03/20 08:21:35;;;;;;;15.97;9.13;;;;;;;8.06;56.81;101066.39;1483197;88;22167;-74
2024/03/20 08:24:04;;;;;;;14.90;8.73;;;;;;;8.10;56.73;101063.86;1473244;88;21323;-75
2024/03/20 08:26:30;;;;;;;13.23;8.97;;;;;;;8.19;58.50;101066.28;1479084;88;21538;-75
2024/03/20 08:28:56;;;;;;;14.93;8.53;;;;;;;8.27;58.12;101062.59;1433345;91;21471;-75
2024/03/20 08:31:22;;;;;;;12.37;8.77;;;;;;;8.37;57.59;101060.08;1481586;88;22593;-74
2024/03/20 08:33:49;;;;;;;13.13;8.53;;;;;;;8.53;58.33;101060.61;1481813;88;21374;-75
2024/03/20 08:36:16;;;;;;;15.70;8.57;;;;;;;8.74;58.26;101058.58;1482786;88;22298;-75
2024/03/20 08:38:46;;;;;;;12.23;8.27;;;;;;;8.94;58.20;101060.48;1482361;88;21396;-74
2024/03/20 08:41:13;;;;;;;11.83;8.65;;;;;;;9.16;57.60;101061.43;1477612;88;21435;-75
2024/03/20 08:43:39;;;;;;;13.37;9.20;;;;;;;9.24;54.20;101053.25;1479090;87;21508;-75
2024/03/20 08:46:09;;;;;;;14.57;8.73;;;;;;;9.41;56.40;101053.20;1479707;88;21467;-75
2024/03/20 08:48:35;;;;;;;12.33;8.40;;;;;;;9.63;53.54;101054.08;1486693;88;21331;-75
2024/03/20 08:51:03;;;;;;;12.27;7.30;;;;;;;9.81;54.48;101055.22;1480134;88;22268;-75
2024/03/20 08:53:32;;;;;;;13.23;8.43;;;;;;;9.99;51.90;101053.33;1431801;91;21376;-75
2024/03/20 08:55:59;;;;;;;14.73;8.27;;;;;;;10.29;53.40;101049.43;1473486;88;21441;-75
2024/03/20 08:58:26;;;;;;;9.27;6.83;;;;;;;10.52;52.07;101042.66;1480203;88;21641;-74
2024/03/20 09:00:54;;;;;;;12.93;7.27;;;;;;;10.73;50.83;101043.92;1482371;88;21329;-76
2024/03/20 09:03:21;;;;;;;9.20;6.37;;;;;;;10.86;50.40;101040.57;1474187;88;22418;-75
2024/03/20 09:05:47;;;;;;;11.50;7.10;;;;;;;10.89;46.21;101040.79;1484126;88;21568;-75
2024/03/20 09:08:13;;;;;;;9.93;7.10;;;;;;;11.04;47.25;101047.37;1405702;92;21458;-74
2024/03/20 09:10:39;;;;;;;16.63;7.70;;;;;;;11.17;50.03;101042.68;1471014;89;21435;-74
2024/03/20 09:13:06;;;;;;;13.83;7.60;;;;;;;11.22;49.19;101040.46;1467409;88;22324;-75
2024/03/20 09:15:33;;;;;;;9.77;6.20;;;;;;;11.32;48.75;101033.01;1458943;89;21545;-76
2024/03/20 09:18:00;;;;;;;11.27;6.53;;;;;;;11.25;45.03;101032.73;1468893;88;21339;-74
2024/03/20 09:20:30;;;;;;;12.77;6.23;;;;;;;11.17;44.60;101032.08;1414780;92;21303;-75
2024/03/20 09:22:55;;;;;;;9.87;6.50;;;;;;;11.30;45.68;101035.29;1449103;89;21412;-74
2024/03/20 09:25:22;;;;;;;12.13;6.10;;;;;;;11.47;47.31;101041.73;1469441;89;22299;-75
2024/03/20 09:27:49;;;;;;;12.50;7.80;;;;;;;11.55;46.34;101040.21;1469376;89;21362;-75
2024/03/20 09:30:16;;;;;;;13.10;7.70;;;;;;;11.59;45.37;101042.43;1469742;89;22308;-75
2024/03/20 09:32:43;;;;;;;10.60;6.97;;;;;;;11.68;45.61;101038.11;1468551;89;21523;-75
2024/03/20 09:35:13;;;;;;;12.90;7.90;;;;;;;11.68;43.63;101034.98;1464725;89;21353;-74
2024/03/20 09:37:40;;;;;;;13.20;7.28;;;;;;;11.62;42.48;101027.56;1462627;89;21412;-75
2024/03/20 09:40:10;;;;;;;10.63;7.77;;;;;;;11.71;44.94;101017.47;1470754;88;22439;-74
2024/03/20 09:42:37;;;;;;;9.50;7.20;;;;;;;11.88;45.45;101015.95;1460631;89;21382;-74
2024/03/20 09:45:05;;;;;;;26.83;7.43;;;;;;;11.91;44.53;101017.45;1461599;89;22374;-74
2024/03/20 09:47:35;;;;;;;11.87;7.90;;;;;;;12.02;44.65;101014.66;1461316;89;21384;-76
2024/03/20 09:50:02;;;;;;;11.85;8.33;;;;;;;12.16;44.81;101005.41;1466648;88;21287;-76
2024/03/20 09:52:29;;;;;;;12.30;7.53;;;;;;;12.28;44.44;101002.09;1469150;89;21597;-77
2024/03/20 09:54:57;;;;;;;12.43;8.00;;;;;;;12.45;44.05;101007.14;1469561;88;22952;-75
2024/03/20 09:57:26;;;;;;;10.07;7.70;;;;;;;12.38;40.98;101005.56;1467982;89;21368;-75
2024/03/20 09:59:53;;;;;;;13.23;7.33;;;;;;;12.35;43.13;100995.23;1406055;92;22335;-76
2024/03/20 10:02:23;;;;;;;11.40;7.30;;;;;;;12.41;41.68;100994.66;1452998;89;21347;-76
2024/03/20 10:04:52;;;;;;;10.48;7.08;;;;;;;12.45;39.79;100993.86;1465264;89;21406;-75
2024/03/20 10:07:18;;;;;;;11.67;7.57;;;;;;;12.61;42.33;100993.58;1472817;88;21693;-74
2024/03/20 10:09:45;;;;;;;12.60;9.53;;;;;;;12.69;41.63;100994.66;1476384;88;21346;-75
2024/03/20 10:12:16;;;;;;;10.00;6.93;;;;;;;12.73;42.28;100988.08;1431205;91;21480;-73
2024/03/20 10:14:43;;;;;;;11.83;8.50;;;;;;;12.72;41.60;100993.06;1476455;88;21475;-74
2024/03/20 10:17:16;;;;;;;11.07;7.30;;;;;;;12.80;42.24;100989.14;1455060;88;22440;-74
2024/03/20 10:19:42;;;;;;;13.10;7.57;;;;;;;12.84;40.57;100982.57;1481723;88;22313;-74
2024/03/20 10:22:09;;;;;;;10.43;6.80;;;;;;;12.83;40.33;100980.41;1481008;88;21457;-73
2024/03/20 10:24:37;;;;;;;12.93;7.03;;;;;;;12.85;41.02;100982.91;1483529;88;21450;-73
2024/03/20 10:27:05;;;;;;;11.30;8.27;;;;;;;12.97;40.94;100977.72;1475446;88;21331;-73
2024/03/20 10:29:35;;;;;;;8.50;6.60;;;;;;;13.00;41.33;100977.41;1488096;88;22358;-73
2024/03/20 10:32:02;;;;;;;10.30;7.20;;;;;;;13.09;41.22;100972.55;1433619;91;21310;-75
2024/03/20 10:34:28;;;;;;;11.70;6.90;;;;;;;13.14;40.56;100965.94;1460061;88;21537;-74
2024/03/20 10:36:56;;;;;;;13.57;7.13;;;;;;;13.20;39.76;100973.30;1488293;88;21434;-74
2024/03/20 10:39:24;;;;;;;8.67;7.00;;;;;;;13.26;40.94;100959.44;1480759;88;21411;-74
2024/03/20 10:41:52;;;;;;;9.47;5.83;;;;;;;13.41;40.20;100960.59;1477539;88;21485;-73
2024/03/20 10:44:20;;;;;;;11.50;6.80;;;;;;;13.46;39.29;100966.75;1476355;88;21323;-74
2024/03/20 10:46:52;;;;;;;7.97;6.20;;;;;;;13.24;38.16;100954.75;1473872;88;22314;-74
2024/03/20 10:49:21;;;;;;;9.33;6.00;;;;;;;13.40;40.34;100953.58;1439692;91;21397;-74
2024/03/20 10:51:50;;;;;;;8.17;6.03;;;;;;;13.45;39.82;100947.81;1486599;88;21322;-74
2024/03/20 10:54:18;;;;;;;8.53;5.90;;;;;;;13.49;40.01;100954.48;1449026;88;21526;-74
2024/03/20 10:56:55;;;;;;;12.60;7.53;;;;;;;13.58;39.35;100947.41;1429063;91;21465;-74
2024/03/20 10:59:23;;;;;;;12.83;6.20;;;;;;;13.66;40.20;100942.98;1480592;88;21456;-74
2024/03/20 11:01:59;;;;;;;11.07;6.23;;;;;;;13.87;40.03;100942.65;1440572;91;21569;-73
2024/03/20 11:04:43;;;;;;;13.87;5.53;;;;;;;14.04;40.15;100931.61;1474961;88;22525;-74
2024/03/20 11:07:33;;;;;;;10.30;5.87;;;;;;;14.11;38.84;100935.80;1415107;91;21641;-73
2024/03/20 11:10:05;;;;;;;10.63;6.00;;;;;;;13.91;38.12;100933.34;1479693;88;21530;-74
2024/03/20 11:12:36;;;;;;;8.50;5.97;;;;;;;13.93;38.55;100934.53;1472749;88;21352;-74
2024/03/20 11:15:05;;;;;;;9.03;6.23;;;;;;;14.06;38.91;100924.78;1481159;88;21397;-74
2024/03/20 11:17:38;;;;;;;10.30;6.97;;;;;;;14.19;38.62;100923.36;1480455;88;21346;-74
2024/03/20 11:20:06;;;;;;;6.30;5.30;;;;;;;14.28;38.88;100921.58;1478323;88;21374;-74
2024/03/20 11:22:33;;;;;;;8.77;5.87;;;;;;;14.26;38.46;100925.38;1477675;88;21382;-74